Time;durP1;ratioP1;P1;durP2;ratioP2;P2;SDS_P1;SDS_P2;PMS_P1;PMS_P2;Temp;Humidity;BMP_temperature;BMP_pressure;BME280_temperature;BME280_humidity;BME280_pressure;Samples;Min_cycle;Max_cycle;Signal;HPM_P1;HPM_P2
2022/01/15 00:01:43;;;;;;;;;128.25;114.25;;;;;;;;5074840;27;45389;-80
2022/01/15 00:04:09;;;;;;;;;128.50;114.00;;;;;;;;5076426;28;45392;-79
2022/01/15 00:06:34;;;;;;;;;100.00;88.00;;;;;;;;5074350;27;45580;-80
2022/01/15 00:08:59;;;;;;;;;154.33;137.00;;;;;;;;5074732;28;45324;-79
2022/01/15 00:11:24;;;;;;;;;167.75;153.75;;;;;;;;5074130;27;45634;-79
2022/01/15 00:14:13;;;;;;;;;181.00;159.00;;;;;;;;5056049;28;47303;-80
2022/01/15 00:16:55;;;;;;;;;171.75;153.75;;;;;;;;5074184;28;45885;-80
2022/01/15 00:19:21;;;;;;;;;165.50;144.50;;;;;;;;5072873;28;45387;-75
2022/01/15 00:21:46;;;;;;;;;175.75;153.25;;;;;;;;5071717;27;45540;-72
2022/01/15 00:24:12;;;;;;;;;179.67;153.33;;;;;;;;5064626;28;46243;-73
2022/01/15 00:26:37;;;;;;;;;166.00;145.00;;;;;;;;5061726;28;45407;-74
2022/01/15 00:29:02;;;;;;;;;171.75;151.75;;;;;;;;5071643;27;45580;-75
2022/01/15 00:31:28;;;;;;;;;171.75;150.25;;;;;;;;5054740;28;45372;-74
2022/01/15 00:33:53;;;;;;;;;157.00;136.25;;;;;;;;5052263;28;47624;-73
2022/01/15 00:36:19;;;;;;;;;154.33;147.67;;;;;;;;5069688;27;45323;-73
2022/01/15 00:38:45;;;;;;;;;157.75;139.50;;;;;;;;5068803;27;45510;-74
2022/01/15 00:41:11;;;;;;;;;126.25;114.00;;;;;;;;5055897;28;45466;-72
2022/01/15 00:43:36;;;;;;;;;143.50;129.50;;;;;;;;5074431;27;47014;-72
2022/01/15 00:46:02;;;;;;;;;139.75;120.25;;;;;;;;5066251;28;45288;-73
2022/01/15 00:48:27;;;;;;;;;117.00;105.25;;;;;;;;5063865;28;45534;-73
2022/01/15 00:50:52;;;;;;;;;125.75;112.25;;;;;;;;5068328;28;45610;-73
2022/01/15 00:53:17;;;;;;;;;105.25;93.25;;;;;;;;5069465;27;45283;-73
2022/01/15 00:55:42;;;;;;;;;111.25;97.25;;;;;;;;5073797;28;45337;-72
2022/01/15 00:58:08;;;;;;;;;117.33;98.67;;;;;;;;5067902;28;45447;-72
2022/01/15 01:00:33;;;;;;;;;108.75;98.50;;;;;;;;5069515;28;45588;-72
2022/01/15 01:02:59;;;;;;;;;107.00;88.75;;;;;;;;5068726;27;46478;-73
2022/01/15 01:05:24;;;;;;;;;102.25;87.50;;;;;;;;5069439;27;45228;-73
2022/01/15 01:07:50;;;;;;;;;97.25;84.25;;;;;;;;5073070;28;45375;-73
2022/01/15 01:23:36;;;;;;;;;113.75;96.50;;;;;;;;5070304;28;46532;-74
2022/01/15 01:26:10;;;;;;;;;102.00;91.00;;;;;;;;5060876;28;45259;-77
2022/01/15 01:28:40;;;;;;;;;105.25;95.25;;;;;;;;5040994;28;45315;-77
2022/01/15 01:33:45;;;;;;;;;108.25;94.25;;;;;;;;5069797;28;46197;-78
2022/01/15 01:36:34;;;;;;;;;108.00;93.25;;;;;;;;5066345;28;45438;-76
2022/01/15 01:39:05;;;;;;;;;106.50;94.25;;;;;;;;5063101;27;45473;-77
2022/01/15 01:41:35;;;;;;;;;102.50;93.75;;;;;;;;5062887;28;45233;-78
2022/01/15 01:44:03;;;;;;;;;92.50;85.25;;;;;;;;5072872;28;46905;-78
2022/01/15 01:48:55;;;;;;;;;105.75;90.50;;;;;;;;5075213;28;45426;-78
2022/01/15 01:51:31;;;;;;;;;107.25;93.50;;;;;;;;5072932;28;45351;-77
2022/01/15 01:53:57;;;;;;;;;103.00;92.50;;;;;;;;5073015;27;46194;-77
2022/01/15 01:56:23;;;;;;;;;103.25;92.50;;;;;;;;5073353;27;45602;-78
2022/01/15 01:58:48;;;;;;;;;101.33;89.67;;;;;;;;5073476;28;45451;-78
2022/01/15 02:01:13;;;;;;;;;99.00;88.50;;;;;;;;5074321;28;45565;-78
2022/01/15 02:03:39;;;;;;;;;103.50;92.75;;;;;;;;5072945;27;46061;-77
2022/01/15 02:06:04;;;;;;;;;95.00;89.00;;;;;;;;5071858;27;45747;-78
2022/01/15 02:08:33;;;;;;;;;91.50;85.75;;;;;;;;5072602;28;45486;-78
2022/01/15 02:10:58;;;;;;;;;93.50;85.25;;;;;;;;5071110;28;45498;-78
2022/01/15 02:13:24;;;;;;;;;98.25;91.75;;;;;;;;5072602;28;45363;-78
2022/01/15 02:15:49;;;;;;;;;98.00;88.50;;;;;;;;5077354;28;45479;-78
2022/01/15 02:18:14;;;;;;;;;108.75;98.75;;;;;;;;5076133;28;45407;-79
2022/01/15 02:23:33;;;;;;;;;97.50;86.00;;;;;;;;5076003;28;45405;-76
2022/01/15 02:26:00;;;;;;;;;104.25;91.25;;;;;;;;5075956;28;45471;-79
2022/01/15 02:28:30;;;;;;;;;108.75;97.75;;;;;;;;5076216;27;45574;-77
2022/01/15 02:30:57;;;;;;;;;106.50;91.75;;;;;;;;5077717;27;45413;-77
2022/01/15 02:33:23;;;;;;;;;104.25;101.25;;;;;;;;5075279;28;47033;-77
2022/01/15 02:35:48;;;;;;;;;110.50;101.50;;;;;;;;5074914;27;45384;-76
2022/01/15 02:38:13;;;;;;;;;122.00;108.75;;;;;;;;5075820;27;45356;-77
2022/01/15 02:40:39;;;;;;;;;120.75;107.25;;;;;;;;5075547;28;45487;-78
2022/01/15 02:43:05;;;;;;;;;116.50;104.75;;;;;;;;5077227;27;47045;-78
2022/01/15 02:45:32;;;;;;;;;117.00;103.25;;;;;;;;5075263;28;45300;-77
2022/01/15 02:48:00;;;;;;;;;101.50;94.75;;;;;;;;5073996;27;45429;-77
2022/01/15 02:50:25;;;;;;;;;108.25;99.50;;;;;;;;5073770;27;45470;-77
2022/01/15 02:52:51;;;;;;;;;116.00;101.75;;;;;;;;5074846;28;45375;-76
2022/01/15 02:55:16;;;;;;;;;109.75;99.00;;;;;;;;5076702;27;45284;-79
2022/01/15 02:57:41;;;;;;;;;112.00;96.00;;;;;;;;5076063;27;45359;-78
2022/01/15 03:00:07;;;;;;;;;117.25;105.25;;;;;;;;5075555;27;45423;-78
2022/01/15 03:02:33;;;;;;;;;110.50;100.75;;;;;;;;5075143;28;47370;-77
2022/01/15 03:04:58;;;;;;;;;118.00;105.75;;;;;;;;5075263;27;45380;-77
2022/01/15 03:07:24;;;;;;;;;115.25;103.50;;;;;;;;5078559;27;45339;-77
2022/01/15 03:09:49;;;;;;;;;107.25;100.25;;;;;;;;5082296;28;45555;-77
2022/01/15 03:12:14;;;;;;;;;104.33;95.33;;;;;;;;5081227;28;46072;-77
2022/01/15 03:14:40;;;;;;;;;115.25;100.50;;;;;;;;5080342;27;45388;-77
2022/01/15 03:17:05;;;;;;;;;111.00;93.00;;;;;;;;5078685;27;45383;-78
2022/01/15 03:19:30;;;;;;;;;117.33;104.00;;;;;;;;5075763;27;45418;-78
2022/01/15 03:21:56;;;;;;;;;113.00;100.25;;;;;;;;5076763;28;47195;-78
2022/01/15 03:24:21;;;;;;;;;113.00;102.00;;;;;;;;5075113;27;45271;-78
2022/01/15 03:26:46;;;;;;;;;115.75;102.00;;;;;;;;5073358;28;45351;-78
2022/01/15 03:29:11;;;;;;;;;111.75;100.75;;;;;;;;5073454;28;45384;-78
2022/01/15 03:31:36;;;;;;;;;111.00;92.00;;;;;;;;5074732;27;46664;-77
2022/01/15 03:34:02;;;;;;;;;106.33;91.67;;;;;;;;5076574;27;45360;-78
2022/01/15 03:36:27;;;;;;;;;103.00;94.75;;;;;;;;5076268;27;45261;-78
2022/01/15 03:38:52;;;;;;;;;99.75;90.25;;;;;;;;5076261;27;45541;-78
2022/01/15 03:41:18;;;;;;;;;101.50;87.50;;;;;;;;5075933;27;45512;-78
2022/01/15 03:43:43;;;;;;;;;102.25;92.75;;;;;;;;5075133;27;45378;-78
2022/01/15 03:46:08;;;;;;;;;101.75;94.50;;;;;;;;5077684;28;45330;-77
2022/01/15 03:48:33;;;;;;;;;93.00;85.75;;;;;;;;5074846;28;45319;-77
2022/01/15 03:50:59;;;;;;;;;109.25;91.50;;;;;;;;5074933;27;45281;-78
2022/01/15 03:53:24;;;;;;;;;99.50;92.00;;;;;;;;5074709;27;45353;-77
2022/01/15 03:55:50;;;;;;;;;108.50;96.25;;;;;;;;5074904;28;45312;-77
2022/01/15 03:58:15;;;;;;;;;109.75;90.75;;;;;;;;5076297;27;45419;-77
2022/01/15 04:00:41;;;;;;;;;104.25;93.75;;;;;;;;5074222;27;45765;-78
2022/01/15 04:03:06;;;;;;;;;103.00;95.00;;;;;;;;5074363;27;45378;-77
2022/01/15 04:05:31;;;;;;;;;106.00;93.50;;;;;;;;5072791;28;45442;-77
2022/01/15 04:07:57;;;;;;;;;102.25;88.00;;;;;;;;5073314;28;45474;-76
2022/01/15 04:10:22;;;;;;;;;103.25;91.25;;;;;;;;5075359;28;45488;-78
2022/01/15 04:12:47;;;;;;;;;101.75;94.00;;;;;;;;5075855;27;45500;-79
2022/01/15 04:15:13;;;;;;;;;101.25;91.00;;;;;;;;5074498;28;45448;-75
2022/01/15 04:17:39;;;;;;;;;97.67;86.00;;;;;;;;5074013;28;45292;-76
2022/01/15 04:20:04;;;;;;;;;96.00;90.75;;;;;;;;5073672;27;46539;-76
2022/01/15 04:22:30;;;;;;;;;99.50;92.25;;;;;;;;5074047;27;45360;-77
2022/01/15 04:24:55;;;;;;;;;109.50;95.50;;;;;;;;5076068;27;45431;-78
2022/01/15 04:27:22;;;;;;;;;99.00;91.00;;;;;;;;5073922;28;45388;-77
2022/01/15 04:29:48;;;;;;;;;112.25;93.50;;;;;;;;5074179;27;46333;-76
2022/01/15 04:32:13;;;;;;;;;101.25;88.75;;;;;;;;5073962;27;45538;-79
2022/01/15 04:34:40;;;;;;;;;103.75;93.00;;;;;;;;5057053;28;45355;-77
2022/01/15 04:37:31;;;;;;;;;104.25;93.75;;;;;;;;5075073;28;45471;-77
2022/01/15 04:39:54;;;;;;;;;100.25;88.00;;;;;;;;5073483;28;45454;-77
2022/01/15 04:42:22;;;;;;;;;98.00;89.33;;;;;;;;5073755;28;45535;-78
2022/01/15 04:44:47;;;;;;;;;102.50;91.25;;;;;;;;5072240;28;45530;-78
2022/01/15 04:47:12;;;;;;;;;113.75;103.50;;;;;;;;5071701;28;45642;-77
2022/01/15 04:49:37;;;;;;;;;107.67;94.33;;;;;;;;5073682;28;45406;-77
2022/01/15 04:52:03;;;;;;;;;111.00;98.75;;;;;;;;5075618;27;45356;-78
2022/01/15 04:54:28;;;;;;;;;96.25;88.25;;;;;;;;5072739;27;45582;-76
2022/01/15 04:56:53;;;;;;;;;109.25;102.50;;;;;;;;5073417;27;47159;-78
2022/01/15 04:59:20;;;;;;;;;111.25;99.50;;;;;;;;5073044;28;45604;-79
2022/01/15 05:01:45;;;;;;;;;109.00;94.75;;;;;;;;5073782;28;45582;-76
2022/01/15 05:04:10;;;;;;;;;110.75;96.75;;;;;;;;5075627;27;45459;-77
2022/01/15 05:06:36;;;;;;;;;107.75;97.25;;;;;;;;5071862;28;45497;-77
2022/01/15 05:09:03;;;;;;;;;114.00;97.25;;;;;;;;5072927;28;46197;-78
2022/01/15 05:11:43;;;;;;;;;104.00;96.00;;;;;;;;5073084;28;45493;-78
2022/01/15 05:14:10;;;;;;;;;101.25;92.50;;;;;;;;5072636;27;45542;-77
2022/01/15 05:16:35;;;;;;;;;112.25;99.75;;;;;;;;5073637;28;45565;-77
2022/01/15 05:19:00;;;;;;;;;118.00;106.50;;;;;;;;5075391;27;45399;-78
2022/01/15 05:21:25;;;;;;;;;110.00;97.33;;;;;;;;5073207;27;45455;-78
2022/01/15 05:23:50;;;;;;;;;109.33;94.33;;;;;;;;5071622;28;45272;-78
2022/01/15 05:26:16;;;;;;;;;121.75;106.00;;;;;;;;5071445;28;45548;-78
2022/01/15 05:28:41;;;;;;;;;110.50;100.75;;;;;;;;5072864;28;46082;-77
2022/01/15 05:31:06;;;;;;;;;112.00;100.25;;;;;;;;5075004;27;45406;-78
2022/01/15 05:33:33;;;;;;;;;114.00;101.75;;;;;;;;5073041;27;45350;-78
2022/01/15 05:35:58;;;;;;;;;105.00;97.00;;;;;;;;5073286;28;45431;-78
2022/01/15 05:38:23;;;;;;;;;111.25;94.25;;;;;;;;5072358;28;45684;-79
2022/01/15 05:40:49;;;;;;;;;107.67;97.67;;;;;;;;5073595;27;45362;-78
2022/01/15 05:43:14;;;;;;;;;99.33;91.67;;;;;;;;5074899;28;45412;-78
2022/01/15 05:45:39;;;;;;;;;103.75;92.50;;;;;;;;5073749;28;45449;-78
2022/01/15 05:48:04;;;;;;;;;116.00;97.50;;;;;;;;5073051;28;46136;-77
2022/01/15 05:50:30;;;;;;;;;104.00;90.00;;;;;;;;5076034;28;45307;-77
2022/01/15 05:52:55;;;;;;;;;99.75;90.75;;;;;;;;5076692;27;45486;-78
2022/01/15 05:55:20;;;;;;;;;109.00;96.00;;;;;;;;5077404;28;45374;-78
2022/01/15 05:57:45;;;;;;;;;92.00;79.25;;;;;;;;5076700;27;46353;-77
2022/01/15 06:00:11;;;;;;;;;103.00;90.33;;;;;;;;5075476;27;45637;-78
2022/01/15 06:02:36;;;;;;;;;104.00;90.50;;;;;;;;5074312;27;46177;-77
2022/01/15 06:05:01;;;;;;;;;94.00;90.00;;;;;;;;5074508;27;45310;-78
2022/01/15 06:07:26;;;;;;;;;93.00;86.50;;;;;;;;5075797;27;46233;-79
2022/01/15 06:09:51;;;;;;;;;94.67;85.00;;;;;;;;5077731;27;45412;-78
2022/01/15 06:12:17;;;;;;;;;96.00;87.50;;;;;;;;5075500;28;46829;-77
2022/01/15 06:14:42;;;;;;;;;98.25;85.25;;;;;;;;5075965;28;45272;-78
2022/01/15 06:17:10;;;;;;;;;99.75;88.25;;;;;;;;5075740;27;46095;-77
2022/01/15 06:19:36;;;;;;;;;93.33;81.67;;;;;;;;5075945;27;45431;-77
2022/01/15 06:22:02;;;;;;;;;100.25;85.50;;;;;;;;5077981;27;45552;-77
2022/01/15 06:24:27;;;;;;;;;98.00;90.25;;;;;;;;5075583;27;45477;-76
2022/01/15 06:26:52;;;;;;;;;92.67;78.67;;;;;;;;5074891;27;46506;-76
2022/01/15 06:29:19;;;;;;;;;93.33;81.00;;;;;;;;5075925;27;45471;-79
2022/01/15 06:31:44;;;;;;;;;95.00;85.67;;;;;;;;5076036;28;45311;-76
2022/01/15 06:34:09;;;;;;;;;95.67;84.00;;;;;;;;5077912;28;45260;-77
2022/01/15 06:36:35;;;;;;;;;86.67;72.67;;;;;;;;5075420;27;45278;-78
2022/01/15 06:39:00;;;;;;;;;90.00;81.00;;;;;;;;5075248;27;45317;-78
2022/01/15 06:41:25;;;;;;;;;92.00;82.00;;;;;;;;5073591;27;45385;-78
2022/01/15 06:43:50;;;;;;;;;95.00;78.00;;;;;;;;5074388;27;45462;-77
2022/01/15 06:46:15;;;;;;;;;92.67;76.33;;;;;;;;5076845;27;46832;-78
2022/01/15 06:48:41;;;;;;;;;97.50;84.00;;;;;;;;5075609;28;45284;-78
2022/01/15 06:51:06;;;;;;;;;108.00;92.33;;;;;;;;5075216;27;45566;-77
2022/01/15 06:53:31;;;;;;;;;95.67;86.00;;;;;;;;5075232;27;45543;-77
2022/01/15 06:55:57;;;;;;;;;85.33;67.33;;;;;;;;5074771;28;46173;-78
2022/01/15 06:58:25;;;;;;;;;98.00;82.67;;;;;;;;5075645;27;45295;-77
2022/01/15 07:00:50;;;;;;;;;92.00;80.67;;;;;;;;5076160;27;45433;-78
2022/01/15 07:03:16;;;;;;;;;87.00;73.00;;;;;;;;5075529;27;45296;-77
2022/01/15 07:05:41;;;;;;;;;94.50;81.25;;;;;;;;5057572;28;46709;-78
2022/01/15 07:08:07;;;;;;;;;99.25;87.75;;;;;;;;5074933;28;45481;-77
2022/01/15 07:10:32;;;;;;;;;102.25;94.25;;;;;;;;5074571;28;45369;-78
2022/01/15 07:12:58;;;;;;;;;94.75;90.50;;;;;;;;5077055;27;45457;-78
2022/01/15 07:15:23;;;;;;;;;109.67;99.00;;;;;;;;5074968;28;45637;-78
2022/01/15 07:17:48;;;;;;;;;112.00;91.50;;;;;;;;5074375;28;45384;-77
2022/01/15 07:20:15;;;;;;;;;98.00;92.50;;;;;;;;5073401;27;45459;-78
2022/01/15 07:22:40;;;;;;;;;95.25;86.00;;;;;;;;5057697;28;45460;-77
2022/01/15 07:25:06;;;;;;;;;97.25;91.50;;;;;;;;5076000;27;45436;-78
2022/01/15 07:27:31;;;;;;;;;98.50;89.00;;;;;;;;5072374;27;45870;-78
2022/01/15 07:29:56;;;;;;;;;100.25;85.50;;;;;;;;5074864;27;45334;-78
2022/01/15 07:32:22;;;;;;;;;101.75;89.00;;;;;;;;5074132;27;45444;-79
2022/01/15 07:34:47;;;;;;;;;103.75;92.50;;;;;;;;5074724;27;46871;-78
2022/01/15 07:37:12;;;;;;;;;97.00;88.25;;;;;;;;5075853;27;45170;-78
2022/01/15 07:39:37;;;;;;;;;91.67;80.33;;;;;;;;5074370;27;45428;-78
2022/01/15 07:42:03;;;;;;;;;108.00;92.50;;;;;;;;5074097;27;45499;-78
2022/01/15 07:44:28;;;;;;;;;100.50;91.25;;;;;;;;5074474;28;46621;-79
2022/01/15 07:46:54;;;;;;;;;100.00;84.25;;;;;;;;5056105;28;46213;-79
2022/01/15 07:49:19;;;;;;;;;100.00;91.75;;;;;;;;5075811;27;45332;-78
2022/01/15 07:51:45;;;;;;;;;93.75;85.75;;;;;;;;5075332;27;45390;-79
2022/01/15 07:54:10;;;;;;;;;95.50;86.25;;;;;;;;5072749;28;47377;-78
2022/01/15 07:56:35;;;;;;;;;94.00;80.75;;;;;;;;5074318;27;45476;-78
2022/01/15 07:59:00;;;;;;;;;98.25;87.75;;;;;;;;5072636;27;45445;-78
2022/01/15 08:01:26;;;;;;;;;106.75;95.00;;;;;;;;5075152;27;45417;-78
2022/01/15 08:03:51;;;;;;;;;102.50;92.25;;;;;;;;5073652;28;46431;-79
2022/01/15 08:06:16;;;;;;;;;110.75;96.50;;;;;;;;5073575;27;47730;-77
2022/01/15 08:08:41;;;;;;;;;103.33;92.33;;;;;;;;5071762;28;45430;-77
2022/01/15 08:11:07;;;;;;;;;102.25;92.75;;;;;;;;5073657;27;45310;-79
2022/01/15 08:13:32;;;;;;;;;94.25;82.75;;;;;;;;5073651;28;46007;-79
2022/01/15 08:15:58;;;;;;;;;102.75;87.00;;;;;;;;5075427;27;45338;-79
2022/01/15 08:18:24;;;;;;;;;106.00;93.75;;;;;;;;5056838;27;45504;-79
2022/01/15 08:20:49;;;;;;;;;106.50;94.25;;;;;;;;5073863;27;45430;-79
2022/01/15 08:23:15;;;;;;;;;95.50;85.25;;;;;;;;5073048;27;47181;-79
2022/01/15 08:25:40;;;;;;;;;104.75;89.75;;;;;;;;5073530;27;45411;-79
2022/01/15 08:28:05;;;;;;;;;97.75;85.25;;;;;;;;5056990;28;45297;-79
2022/01/15 08:30:31;;;;;;;;;104.00;91.50;;;;;;;;5073621;27;45446;-78
2022/01/15 08:32:56;;;;;;;;;94.50;83.00;;;;;;;;5073239;27;45585;-78
2022/01/15 08:35:21;;;;;;;;;106.75;94.00;;;;;;;;5073092;27;45372;-78
2022/01/15 08:37:47;;;;;;;;;89.33;79.67;;;;;;;;5071824;28;45255;-79
2022/01/15 08:40:13;;;;;;;;;96.25;89.00;;;;;;;;5075282;27;45323;-80
2022/01/15 08:42:38;;;;;;;;;91.67;80.33;;;;;;;;5073284;27;47358;-80
2022/01/15 08:45:06;;;;;;;;;92.00;84.00;;;;;;;;5073134;27;45388;-78
2022/01/15 08:47:31;;;;;;;;;91.00;77.00;;;;;;;;5071395;27;45357;-76
2022/01/15 08:49:56;;;;;;;;;92.00;81.67;;;;;;;;5074266;27;45510;-77
2022/01/15 08:52:21;;;;;;;;;88.33;77.67;;;;;;;;5057870;28;47110;-78
2022/01/15 08:54:47;;;;;;;;;91.33;78.33;;;;;;;;5061605;27;45425;-78
2022/01/15 08:57:12;;;;;;;;;86.67;74.00;;;;;;;;5047899;28;45437;-77
2022/01/15 08:59:38;;;;;;;;;89.33;78.33;;;;;;;;5070831;28;45539;-75
2022/01/15 09:02:03;;;;;;;;;91.33;76.00;;;;;;;;5061284;27;48215;-78
2022/01/15 09:04:29;;;;;;;;;87.00;79.00;;;;;;;;5057291;28;45536;-77
2022/01/15 09:06:54;;;;;;;;;90.67;75.33;;;;;;;;5051417;28;45451;-77
2022/01/15 09:09:20;;;;;;;;;85.33;70.33;;;;;;;;5065352;27;45316;-77
2022/01/15 09:11:45;;;;;;;;;83.33;71.00;;;;;;;;5068626;28;46181;-76
2022/01/15 09:14:11;;;;;;;;;83.33;69.67;;;;;;;;5069249;27;45465;-75
2022/01/15 09:16:37;;;;;;;;;80.00;66.67;;;;;;;;5073098;28;45424;-77
2022/01/15 09:19:02;;;;;;;;;80.00;63.00;;;;;;;;5065954;28;45352;-76
2022/01/15 09:21:28;;;;;;;;;82.00;72.00;;;;;;;;5068308;27;46357;-78
2022/01/15 09:23:53;;;;;;;;;80.67;65.33;;;;;;;;5068874;27;45234;-77
2022/01/15 09:26:25;;;;;;;;;83.00;73.67;;;;;;;;5076558;27;45308;-79
2022/01/15 09:31:35;;;;;;;;;93.33;82.67;;;;;;;;5076604;27;45494;-79
2022/01/15 09:34:00;;;;;;;;;87.33;77.33;;;;;;;;5077336;28;45475;-75
2022/01/15 09:36:25;;;;;;;;;84.67;72.33;;;;;;;;5069970;27;45822;-73
2022/01/15 09:38:51;;;;;;;;;88.67;82.67;;;;;;;;5066312;28;45214;-74
2022/01/15 09:41:16;;;;;;;;;98.67;82.00;;;;;;;;5076154;27;46526;-72
2022/01/15 09:43:42;;;;;;;;;98.33;83.00;;;;;;;;5063978;27;45486;-75
2022/01/15 09:46:09;;;;;;;;;98.00;79.33;;;;;;;;5062018;27;45392;-77
2022/01/15 09:48:38;;;;;;;;;86.67;77.00;;;;;;;;5072192;27;45614;-75
2022/01/15 09:51:03;;;;;;;;;91.00;84.33;;;;;;;;5069359;27;46405;-78
2022/01/15 09:53:29;;;;;;;;;94.67;90.67;;;;;;;;5065062;27;45452;-75
2022/01/15 09:55:54;;;;;;;;;96.67;91.67;;;;;;;;5062282;28;45403;-76
2022/01/15 09:58:20;;;;;;;;;108.25;95.50;;;;;;;;5060500;28;45493;-74
2022/01/15 10:00:46;;;;;;;;;96.67;83.00;;;;;;;;5072605;27;45676;-74
2022/01/15 10:03:11;;;;;;;;;95.00;82.67;;;;;;;;5068515;27;45491;-74
2022/01/15 10:05:37;;;;;;;;;98.67;89.67;;;;;;;;5064905;27;45409;-74
2022/01/15 10:08:02;;;;;;;;;93.00;85.33;;;;;;;;5045122;27;45463;-73
2022/01/15 10:10:28;;;;;;;;;82.00;69.00;;;;;;;;5060346;28;45964;-75
2022/01/15 10:12:54;;;;;;;;;84.67;79.00;;;;;;;;5075079;27;45379;-75
2022/01/15 10:15:19;;;;;;;;;85.33;74.00;;;;;;;;5075137;27;45332;-76
2022/01/15 10:17:45;;;;;;;;;100.67;90.33;;;;;;;;5075594;27;45437;-75
2022/01/15 10:20:12;;;;;;;;;91.00;85.00;;;;;;;;5057551;28;48166;-73
2022/01/15 10:22:39;;;;;;;;;94.33;86.33;;;;;;;;5075326;28;45547;-74
2022/01/15 10:25:10;;;;;;;;;91.33;84.00;;;;;;;;5077216;27;45363;-76
2022/01/15 10:27:39;;;;;;;;;101.33;89.00;;;;;;;;5074493;27;45336;-75
2022/01/15 10:30:06;;;;;;;;;97.50;90.50;;;;;;;;5057123;28;47440;-73
2022/01/15 10:32:33;;;;;;;;;113.25;104.00;;;;;;;;5052267;28;45424;-76
2022/01/15 10:35:00;;;;;;;;;88.33;77.67;;;;;;;;5073244;27;45230;-73
2022/01/15 10:37:28;;;;;;;;;97.00;89.00;;;;;;;;5076226;27;45322;-73
2022/01/15 10:40:07;;;;;;;;;100.75;94.75;;;;;;;;5074731;27;47028;-74
2022/01/15 10:42:39;;;;;;;;;111.50;102.50;;;;;;;;5075310;27;45455;-72
2022/01/15 10:45:12;;;;;;;;;95.25;91.00;;;;;;;;5074481;27;45517;-72
2022/01/15 10:47:48;;;;;;;;;103.75;94.50;;;;;;;;5073790;27;45301;-73
2022/01/15 10:50:20;;;;;;;;;106.50;96.00;;;;;;;;5073916;27;46348;-73
2022/01/15 10:52:46;;;;;;;;;105.67;98.00;;;;;;;;5058358;27;45572;-74
2022/01/15 10:55:12;;;;;;;;;110.33;100.67;;;;;;;;5075385;27;45403;-73
2022/01/15 10:57:38;;;;;;;;;113.00;97.00;;;;;;;;5073831;27;45410;-73
2022/01/15 11:00:06;;;;;;;;;100.75;94.25;;;;;;;;5073953;27;46494;-74
2022/01/15 11:02:32;;;;;;;;;113.50;103.50;;;;;;;;5073183;28;45367;-72
2022/01/15 11:04:57;;;;;;;;;113.33;101.67;;;;;;;;5074292;28;45529;-75
2022/01/15 11:07:22;;;;;;;;;124.75;110.00;;;;;;;;5075482;27;45216;-72
2022/01/15 11:09:50;;;;;;;;;110.75;105.50;;;;;;;;5070032;28;47070;-76
2022/01/15 11:12:16;;;;;;;;;109.25;104.75;;;;;;;;5064438;27;45463;-74
2022/01/15 11:14:42;;;;;;;;;110.25;102.75;;;;;;;;5070269;28;45514;-75
2022/01/15 11:17:07;;;;;;;;;120.50;114.00;;;;;;;;5072283;28;45419;-74
2022/01/15 11:19:33;;;;;;;;;121.33;111.00;;;;;;;;5073803;27;45787;-75
2022/01/15 11:21:59;;;;;;;;;115.00;101.50;;;;;;;;5076114;27;45335;-74
2022/01/15 11:24:24;;;;;;;;;118.00;104.50;;;;;;;;5073746;28;45328;-75
2022/01/15 11:26:57;;;;;;;;;111.25;101.75;;;;;;;;5073644;27;45451;-74
2022/01/15 11:29:22;;;;;;;;;115.25;104.00;;;;;;;;5070657;27;46392;-75
2022/01/15 11:31:50;;;;;;;;;116.25;108.75;;;;;;;;5073510;27;45379;-74
2022/01/15 11:34:19;;;;;;;;;117.00;108.50;;;;;;;;5075610;27;45367;-74
2022/01/15 11:36:44;;;;;;;;;114.33;106.33;;;;;;;;5074244;27;45499;-74
2022/01/15 11:39:10;;;;;;;;;117.00;105.00;;;;;;;;5073686;27;46201;-74
2022/01/15 11:41:37;;;;;;;;;110.00;99.00;;;;;;;;5074141;28;45474;-74
2022/01/15 11:44:04;;;;;;;;;114.33;103.33;;;;;;;;5073639;27;45387;-74
2022/01/15 11:46:49;;;;;;;;;107.00;97.33;;;;;;;;5054082;28;45367;-75
2022/01/15 11:49:23;;;;;;;;;102.00;100.33;;;;;;;;5068978;27;46751;-77
2022/01/15 11:51:52;;;;;;;;;93.00;86.00;;;;;;;;5074870;28;45416;-76
2022/01/15 11:54:18;;;;;;;;;101.67;90.67;;;;;;;;5069536;27;45381;-76
2022/01/15 11:56:43;;;;;;;;;94.00;88.67;;;;;;;;5069293;28;45315;-76
2022/01/15 11:59:27;;;;;;;;;105.33;93.00;;;;;;;;5070285;27;46103;-75
2022/01/15 12:01:56;;;;;;;;;107.67;101.00;;;;;;;;5059192;27;45541;-75
2022/01/15 12:04:25;;;;;;;;;93.00;85.67;;;;;;;;5072523;28;45574;-76
2022/01/15 12:07:05;;;;;;;;;98.67;90.67;;;;;;;;5061512;28;45407;-77
2022/01/15 12:09:34;;;;;;;;;106.67;101.33;;;;;;;;5068275;28;47068;-74
2022/01/15 12:12:00;;;;;;;;;112.33;99.33;;;;;;;;5069861;28;45395;-75
2022/01/15 12:14:44;;;;;;;;;110.00;101.67;;;;;;;;5072236;27;45365;-77
2022/01/15 12:17:22;;;;;;;;;122.33;109.00;;;;;;;;5069486;28;45621;-76
2022/01/15 12:19:47;;;;;;;;;106.33;96.67;;;;;;;;5051332;28;47370;-75
2022/01/15 12:22:32;;;;;;;;;111.00;101.67;;;;;;;;5082424;27;45222;-74
2022/01/15 12:24:57;;;;;;;;;110.33;99.67;;;;;;;;5065791;27;45217;-76
2022/01/15 12:27:25;;;;;;;;;111.33;101.33;;;;;;;;5064715;28;45368;-76
2022/01/15 12:29:57;;;;;;;;;96.00;92.33;;;;;;;;5065810;28;46647;-76
2022/01/15 12:32:42;;;;;;;;;112.67;103.33;;;;;;;;5072999;28;45307;-77
2022/01/15 12:35:22;;;;;;;;;114.00;103.67;;;;;;;;5071219;28;45355;-77
2022/01/15 12:37:55;;;;;;;;;116.67;112.00;;;;;;;;5058135;28;45442;-77
2022/01/15 12:40:22;;;;;;;;;117.33;106.33;;;;;;;;5057322;28;46999;-77
2022/01/15 12:42:54;;;;;;;;;113.67;107.67;;;;;;;;5065109;28;45443;-77
2022/01/15 12:45:19;;;;;;;;;115.33;103.67;;;;;;;;5068455;28;45498;-78
2022/01/15 12:47:47;;;;;;;;;111.33;104.33;;;;;;;;5068754;27;45582;-76
2022/01/15 12:50:13;;;;;;;;;112.67;101.67;;;;;;;;5058284;28;47507;-76
2022/01/15 12:52:38;;;;;;;;;108.33;101.00;;;;;;;;5072777;28;45303;-75
2022/01/15 12:55:03;;;;;;;;;107.33;98.00;;;;;;;;5059100;27;45485;-74
2022/01/15 12:57:35;;;;;;;;;110.67;97.00;;;;;;;;5056199;28;45478;-75
2022/01/15 13:00:01;;;;;;;;;108.67;102.00;;;;;;;;5061823;28;47134;-73
2022/01/15 13:02:26;;;;;;;;;109.00;96.33;;;;;;;;5069044;27;45584;-74
2022/01/15 13:04:54;;;;;;;;;115.67;104.33;;;;;;;;5073151;28;45521;-74
2022/01/15 13:07:19;;;;;;;;;115.00;104.00;;;;;;;;5057402;28;45393;-74
2022/01/15 13:09:45;;;;;;;;;115.00;108.67;;;;;;;;5061225;28;49608;-74
2022/01/15 13:12:11;;;;;;;;;115.33;107.00;;;;;;;;5066792;28;45521;-75
2022/01/15 13:14:40;;;;;;;;;108.67;105.00;;;;;;;;5069856;27;45323;-76
2022/01/15 13:17:18;;;;;;;;;107.33;99.67;;;;;;;;5057071;28;45249;-76
2022/01/15 13:19:45;;;;;;;;;127.25;114.50;;;;;;;;5056292;28;46314;-78
2022/01/15 13:22:11;;;;;;;;;117.67;111.33;;;;;;;;5068923;28;45511;-79
2022/01/15 13:24:36;;;;;;;;;121.33;109.00;;;;;;;;5068358;27;45481;-75
2022/01/15 13:27:03;;;;;;;;;109.67;103.00;;;;;;;;5067273;27;45477;-75
2022/01/15 13:29:39;;;;;;;;;114.67;109.67;;;;;;;;5067725;27;45531;-74
2022/01/15 13:32:07;;;;;;;;;104.00;97.33;;;;;;;;5072896;28;45475;-75
2022/01/15 13:34:34;;;;;;;;;118.33;110.33;;;;;;;;5056785;28;45588;-75
2022/01/15 13:37:13;;;;;;;;;107.00;97.67;;;;;;;;5059261;28;45531;-76
2022/01/15 13:39:39;;;;;;;;;108.67;104.00;;;;;;;;5061313;27;45950;-75
2022/01/15 13:42:13;;;;;;;;;110.00;105.33;;;;;;;;5060667;28;45599;-75
2022/01/15 13:44:40;;;;;;;;;103.67;98.67;;;;;;;;5061225;28;45489;-75
2022/01/15 13:47:08;;;;;;;;;105.67;101.00;;;;;;;;5057579;28;45563;-75
2022/01/15 13:53:04;;;;;;;;;107.00;99.33;;;;;;;;5070141;27;46653;-75
2022/01/15 13:55:11;;;;;;;;;106.67;99.33;;;;;;;;5073589;28;45440;-75
2022/01/15 13:57:36;;;;;;;;;106.67;97.00;;;;;;;;5071524;27;45403;-74
2022/01/15 14:00:06;;;;;;;;;118.33;108.67;;;;;;;;5071393;27;45392;-75
2022/01/15 14:02:32;;;;;;;;;95.33;85.67;;;;;;;;5054042;28;45586;-75
2022/01/15 14:05:12;;;;;;;;;103.00;96.67;;;;;;;;5071380;28;45380;-75
2022/01/15 14:07:38;;;;;;;;;103.67;100.00;;;;;;;;5070424;27;45537;-75
2022/01/15 14:10:07;;;;;;;;;103.00;97.33;;;;;;;;5073468;27;46589;-75
2022/01/15 14:12:32;;;;;;;;;105.00;100.33;;;;;;;;5074841;28;45458;-75
2022/01/15 14:15:12;;;;;;;;;108.67;100.00;;;;;;;;5074873;27;45320;-75
2022/01/15 14:17:42;;;;;;;;;107.00;95.33;;;;;;;;5074976;28;45568;-75
2022/01/15 14:22:46;;;;;;;;;107.00;99.67;;;;;;;;5075104;27;45338;-75
2022/01/15 14:25:11;;;;;;;;;107.67;100.33;;;;;;;;5072472;27;45339;-75
2022/01/15 14:27:36;;;;;;;;;112.00;103.33;;;;;;;;5074120;27;45467;-75
2022/01/15 14:30:02;;;;;;;;;101.33;93.67;;;;;;;;5072530;27;45403;-75
2022/01/15 14:32:28;;;;;;;;;108.67;101.00;;;;;;;;5070901;27;45328;-75